Main page
Satellite images 15-day forecastsClimateMarine weather Cyclones Lightning AirportsFAQ Newsletter About
Weather : Europe Africa North America South America Asia Australia-Oceania Others
Languages Contact

Milan, Italy

Malpensa

latitude: 45-37N, longitude: 008-44E, elevation: 234 m


METAR: LIMC 250250Z 06004KT 020V090 CAVOK 10/08 Q1019 NOSIG
TAF: LIMC 242300Z 2500/2606 VRB05KT CAVOK

Time: 05:25 (03:25 UTC)

Current weather observation

The report was made 35 minutes ago, at 02:50 UTC
Wind 4 kt from the East/Northeast, varying between North/Northeast and East
Temperature 10°C
Humidity 87%
Pressure 1019 hPa
Visibility 10 km or more
no clouds below 1500 m and no cumulonimbus

Change units

Forecast

The report was made 4 hours and 25 minutes ago, at 23:00 UTC
Forecast valid from 25 at 00 UTC to 26 at 06 UTC
Wind 5 kt from variable directions
Visibility 10 km or more
no clouds below 1500 m and no cumulonimbus
The information on this site is subject to a disclaimer
Weather : Europe Africa North America South America Asia Australia-Oceania Others
Satellite images 15-day forecastsClimateMarine weather Cyclones Lightning AirportsFAQ Languages Contact Newsletter About